createdAt,value
2022-12-12T05:35:10.783Z,6.20
2022-12-12T05:38:14.036Z,7.15
2022-12-12T05:41:16.714Z,5.72
2022-12-12T05:44:20.507Z,6.80
2022-12-12T05:47:23.118Z,6.55
2022-12-12T05:50:26.230Z,7.03
2022-12-12T05:53:29.773Z,5.30
2022-12-12T05:56:33.399Z,6.62
2022-12-12T05:59:36.331Z,5.57
2022-12-12T06:02:39.492Z,5.95
2022-12-12T06:05:42.823Z,6.18
2022-12-12T06:08:45.476Z,6.03
2022-12-12T06:11:48.378Z,6.70
2022-12-12T06:14:50.983Z,6.57
2022-12-12T06:17:54.149Z,6.35
2022-12-12T06:21:08.627Z,6.07
2022-12-12T06:24:11.853Z,7.40
2022-12-12T06:27:14.480Z,5.43
2022-12-12T06:30:17.506Z,6.45
2022-12-12T06:33:20.114Z,5.93
2022-12-12T06:36:25.019Z,6.68
2022-12-12T06:39:48.086Z,6.43
2022-12-12T06:42:50.946Z,7.05
2022-12-12T06:46:00.851Z,6.30
2022-12-12T06:52:12.587Z,5.10
2022-12-12T06:55:15.685Z,4.82
2022-12-12T06:58:18.505Z,6.35
2022-12-12T07:01:23.585Z,6.90
2022-12-12T07:04:26.619Z,6.15
2022-12-12T07:07:29.937Z,7.40
2022-12-12T07:10:36.165Z,6.00
2022-12-12T07:13:39.350Z,6.62
2022-12-12T07:16:41.952Z,7.35
2022-12-12T07:19:45.855Z,6.70
2022-12-12T07:22:48.681Z,6.07
2022-12-12T07:25:51.736Z,6.95
2022-12-12T07:28:54.347Z,7.50
2022-12-12T07:31:57.544Z,7.10
2022-12-12T07:35:00.330Z,6.47
2022-12-12T07:38:05.038Z,7.75
2022-12-12T07:41:11.146Z,7.32
2022-12-12T07:44:15.936Z,7.00
2022-12-12T07:47:18.614Z,7.28
2022-12-12T07:50:22.034Z,7.18
2022-12-12T07:53:24.700Z,5.80
2022-12-12T07:56:27.760Z,6.28
2022-12-12T07:59:31.524Z,6.47
2022-12-12T08:02:34.776Z,6.20
2022-12-12T08:05:41.721Z,5.18
2022-12-12T08:08:45.273Z,6.35
2022-12-12T08:11:48.404Z,5.65
2022-12-12T08:14:51.168Z,5.53
2022-12-12T08:17:54.086Z,4.93
2022-12-12T08:20:57.920Z,5.00
2022-12-12T08:24:02.654Z,5.53
2022-12-12T08:27:05.397Z,4.70
2022-12-12T08:30:12.022Z,4.93
2022-12-12T08:33:15.334Z,4.85
2022-12-12T09:37:28.930Z,5.35
2022-12-12T09:40:40.015Z,4.95
2022-12-12T09:47:41.841Z,4.65
2022-12-12T09:51:14.247Z,4.10
2022-12-12T09:54:37.056Z,4.50
2022-12-12T09:58:12.272Z,4.87
2022-12-12T10:01:17.717Z,3.95
2022-12-12T10:04:51.485Z,4.53
2022-12-12T10:08:15.294Z,4.50
2022-12-12T10:11:50.794Z,3.67
2022-12-12T10:15:07.821Z,4.30
2022-12-12T10:18:29.105Z,4.00
2022-12-12T10:21:40.955Z,4.20
2022-12-12T10:28:19.438Z,4.30
2022-12-12T10:31:53.281Z,4.75
2022-12-12T10:35:08.623Z,3.47
2022-12-12T10:38:38.557Z,3.90
2022-12-12T10:41:53.089Z,4.43
2022-12-12T10:45:23.868Z,4.07
2022-12-12T10:48:28.176Z,4.12
2022-12-12T10:51:31.340Z,5.10
2022-12-12T10:54:44.351Z,5.03
2022-12-12T10:57:47.301Z,6.03
2022-12-12T11:00:53.055Z,5.25
2022-12-12T11:03:57.436Z,3.67
2022-12-12T11:07:00.597Z,3.78
2022-12-12T11:10:33.711Z,4.47
2022-12-12T11:14:06.033Z,3.35
2022-12-12T11:17:34.653Z,3.70
2022-12-12T11:20:47.823Z,4.25
2022-12-12T11:24:18.553Z,5.47
2022-12-12T11:27:23.610Z,4.07
2022-12-12T11:30:37.491Z,4.75
2022-12-12T11:33:50.204Z,4.50
2022-12-12T11:36:54.602Z,4.25
2022-12-12T11:39:58.556Z,3.03
2022-12-12T11:43:14.063Z,4.10
2022-12-12T11:46:25.854Z,3.75
2022-12-12T11:49:31.195Z,3.60
2022-12-12T11:52:34.315Z,3.50
2022-12-12T11:55:54.697Z,4.15
2022-12-12T11:59:26.601Z,3.95
2022-12-12T12:02:44.332Z,4.75
2022-12-12T12:05:56.397Z,3.40
2022-12-12T12:09:15.736Z,4.30
2022-12-12T12:12:39.400Z,4.05
2022-12-12T12:15:49.608Z,4.35
2022-12-12T12:22:22.392Z,3.90
2022-12-12T12:25:40.915Z,3.92
2022-12-12T12:29:09.971Z,4.30
2022-12-12T12:32:42.129Z,4.80
2022-12-12T12:36:02.720Z,3.78
2022-12-12T12:39:20.205Z,4.22
2022-12-12T12:42:58.499Z,3.62
2022-12-12T12:46:12.703Z,4.40
2022-12-12T12:49:21.813Z,4.37
2022-12-12T12:52:39.586Z,4.70
2022-12-12T12:55:50.911Z,4.40
2022-12-12T12:58:58.209Z,3.87
2022-12-12T13:02:12.120Z,4.37
2022-12-12T13:05:50.665Z,4.15
2022-12-12T13:09:28.115Z,4.07
2022-12-12T13:12:44.202Z,5.82
2022-12-12T13:15:54.022Z,4.53
2022-12-12T13:19:13.156Z,5.53
2022-12-12T13:22:54.505Z,4.62
2022-12-12T13:26:06.373Z,5.12
2022-12-12T13:29:47.665Z,6.35
2022-12-12T13:33:15.372Z,5.85
2022-12-12T13:36:29.019Z,4.15
2022-12-12T13:39:35.867Z,5.15
2022-12-12T13:42:54.236Z,5.25
2022-12-12T13:49:47.248Z,5.22
2022-12-12T13:53:08.682Z,4.35
2022-12-12T13:56:33.558Z,5.25
2022-12-12T13:59:56.004Z,5.32
2022-12-12T14:03:04.640Z,5.05
2022-12-12T14:06:11.094Z,5.43
2022-12-12T14:09:21.713Z,5.62
2022-12-12T14:12:32.207Z,5.82
2022-12-12T14:15:35.970Z,6.10
2022-12-12T14:18:41.105Z,9.90
2022-12-12T14:21:48.726Z,9.13
2022-12-12T14:25:20.306Z,8.50
2022-12-12T14:28:33.821Z,7.03
2022-12-12T14:31:40.813Z,6.37
2022-12-12T14:35:11.539Z,6.55
2022-12-12T14:38:34.820Z,6.62
2022-12-12T14:41:40.920Z,6.25
2022-12-12T14:44:50.567Z,6.43
2022-12-12T14:48:20.957Z,5.87
2022-12-12T14:51:32.286Z,7.43
2022-12-12T14:54:52.534Z,7.62
2022-12-12T14:57:55.644Z,6.68
2022-12-12T15:01:02.055Z,8.60
2022-12-12T15:04:16.117Z,7.25
2022-12-12T15:07:27.735Z,7.82
2022-12-12T15:10:33.904Z,7.18
2022-12-12T15:13:36.698Z,5.72
2022-12-12T15:16:48.672Z,7.37
2022-12-12T15:20:16.880Z,7.10
2022-12-12T15:23:20.139Z,7.35
2022-12-12T15:26:28.052Z,7.03
2022-12-12T15:29:32.830Z,8.15
2022-12-12T15:32:36.752Z,6.72
2022-12-12T15:35:39.827Z,6.50
2022-12-12T15:38:46.414Z,5.37
2022-12-12T15:41:52.189Z,5.73
2022-12-12T15:44:59.873Z,6.22
2022-12-12T15:48:05.000Z,7.30
2022-12-12T15:51:08.458Z,6.53
2022-12-12T15:54:12.513Z,6.57
2022-12-12T15:57:28.172Z,6.75
2022-12-12T16:00:40.539Z,6.35
2022-12-12T16:04:02.113Z,6.43
2022-12-12T16:07:21.940Z,6.70
2022-12-12T16:10:25.669Z,7.50
2022-12-12T16:13:37.645Z,9.95
2022-12-12T16:16:46.275Z,7.65
2022-12-12T16:19:56.967Z,7.68
2022-12-12T16:23:39.594Z,5.72
2022-12-12T16:41:31.971Z,16.92
2022-12-12T16:44:36.786Z,13.18
2022-12-12T16:47:39.505Z,12.35
2022-12-12T16:50:45.635Z,9.30
2022-12-12T16:53:48.252Z,9.18
2022-12-12T16:56:52.715Z,8.10
2022-12-12T16:59:55.680Z,13.85
2022-12-12T17:02:58.714Z,10.50
2022-12-12T17:06:01.549Z,9.38
2022-12-12T17:09:04.540Z,8.43
2022-12-12T17:12:09.266Z,7.90
2022-12-12T17:15:24.545Z,6.85
2022-12-12T17:18:27.454Z,7.32
2022-12-12T17:21:31.187Z,7.70
2022-12-12T17:24:34.374Z,6.30
2022-12-12T17:27:37.341Z,6.35
2022-12-12T17:30:41.619Z,9.02
2022-12-12T17:33:50.538Z,8.00
2022-12-12T17:36:53.803Z,6.05
2022-12-12T17:39:57.586Z,5.80
2022-12-12T17:43:00.553Z,5.97
2022-12-12T17:46:07.492Z,6.85
2022-12-12T17:49:10.171Z,6.03
2022-12-12T17:52:13.220Z,5.72
2022-12-12T17:55:53.645Z,5.78
2022-12-12T17:58:54.729Z,5.50
2022-12-12T18:02:00.196Z,5.28
2022-12-12T18:05:04.889Z,6.43
2022-12-12T18:08:07.907Z,5.93
2022-12-12T18:11:14.011Z,5.15
2022-12-12T18:14:18.604Z,8.20
2022-12-12T18:17:21.941Z,8.55
2022-12-12T18:20:29.591Z,8.10
2022-12-12T18:23:34.650Z,6.95
2022-12-12T18:26:37.397Z,8.25
2022-12-12T18:29:40.425Z,7.10
2022-12-12T18:32:43.378Z,7.05
2022-12-12T18:35:46.276Z,6.18
2022-12-12T18:38:49.116Z,7.50
2022-12-12T18:41:52.223Z,7.95
2022-12-12T18:44:56.487Z,5.78
2022-12-12T18:47:59.476Z,7.65
2022-12-12T18:51:05.057Z,7.68
2022-12-12T18:54:14.258Z,5.90
2022-12-12T18:57:18.392Z,6.72
2022-12-12T19:00:21.780Z,7.25
2022-12-12T19:03:24.480Z,8.95
2022-12-12T19:06:34.435Z,8.38
2022-12-12T19:09:37.689Z,7.83
2022-12-12T19:12:41.100Z,6.82
2022-12-12T19:15:43.727Z,9.98
2022-12-12T19:18:47.795Z,9.60
2022-12-12T19:21:50.481Z,9.27
2022-12-12T19:24:53.445Z,12.23
2022-12-12T19:27:56.416Z,11.57
2022-12-12T19:31:06.438Z,13.15
2022-12-12T19:34:12.293Z,10.02
2022-12-12T19:37:15.678Z,10.27
2022-12-12T19:40:19.058Z,11.52
2022-12-12T19:43:21.939Z,13.68
2022-12-12T19:46:26.976Z,14.40
2022-12-12T19:49:29.837Z,11.93
2022-12-12T19:52:32.448Z,10.40
2022-12-12T19:55:35.751Z,10.13
2022-12-12T19:58:38.995Z,8.70
2022-12-12T20:01:43.156Z,8.88
2022-12-12T20:04:46.265Z,8.50
2022-12-12T20:07:49.403Z,7.10
2022-12-12T20:10:52.611Z,6.78
2022-12-12T20:13:56.940Z,6.30
2022-12-12T20:47:14.485Z,6.40
2022-12-12T20:50:27.286Z,6.68
2022-12-12T20:53:36.159Z,6.57
2022-12-12T20:56:44.596Z,5.47
2022-12-12T20:59:48.936Z,9.35
2022-12-12T21:02:52.018Z,7.87
2022-12-12T21:05:54.640Z,9.80
2022-12-12T21:09:01.174Z,7.50
2022-12-12T21:12:04.131Z,6.70
2022-12-12T21:15:08.075Z,7.30
2022-12-12T21:18:10.788Z,6.22
2022-12-12T21:21:14.077Z,7.05
2022-12-12T21:24:18.042Z,7.80
2022-12-12T21:27:21.030Z,7.72
2022-12-12T21:30:23.858Z,8.50
2022-12-12T21:33:28.428Z,5.70
2022-12-12T21:36:32.080Z,5.30
2022-12-12T21:39:35.078Z,6.37
2022-12-12T21:42:37.832Z,7.10
2022-12-12T21:45:40.689Z,6.82
2022-12-12T21:48:43.420Z,6.30
2022-12-12T21:51:46.678Z,6.32
2022-12-12T21:54:49.888Z,5.75
2022-12-12T21:57:53.876Z,5.97
2022-12-12T22:01:02.843Z,5.78
2022-12-12T22:04:06.355Z,5.32
2022-12-12T22:07:12.220Z,5.87
2022-12-12T22:10:15.815Z,5.78
2022-12-12T22:13:18.383Z,6.32
2022-12-12T22:16:21.380Z,6.12
2022-12-12T22:19:24.039Z,5.50
2022-12-12T22:22:28.368Z,6.10
2022-12-12T22:25:31.042Z,5.90
2022-12-12T22:28:33.977Z,5.37
2022-12-12T22:31:39.423Z,4.85
2022-12-12T22:34:44.220Z,5.50
2022-12-12T22:37:46.844Z,5.62
2022-12-12T22:40:56.712Z,5.40
2022-12-12T22:44:02.412Z,4.72
2022-12-12T22:47:05.328Z,5.75
2022-12-12T22:50:08.464Z,4.93
2022-12-12T22:53:14.067Z,6.32
2022-12-12T22:56:16.862Z,5.32
2022-12-12T22:59:19.903Z,5.50
2022-12-12T23:02:25.213Z,4.97
2022-12-12T23:05:28.381Z,5.28
2022-12-12T23:08:31.309Z,6.53
2022-12-12T23:11:35.569Z,4.85
2022-12-12T23:14:38.353Z,5.28
2022-12-12T23:17:41.230Z,5.00
2022-12-12T23:20:46.048Z,5.05
2022-12-12T23:23:49.424Z,5.82
2022-12-12T23:26:52.262Z,4.78
2022-12-12T23:29:55.148Z,4.93
2022-12-12T23:32:57.821Z,5.32
2022-12-12T23:36:00.653Z,5.10
2022-12-12T23:39:07.939Z,5.12
2022-12-12T23:42:11.030Z,4.70
2022-12-12T23:45:13.885Z,5.47
2022-12-12T23:48:17.039Z,5.20
2022-12-12T23:51:19.815Z,4.25
2022-12-12T23:54:32.178Z,4.82
2022-12-12T23:57:34.973Z,4.65
